Time;durP1;ratioP1;P1;durP2;ratioP2;P2;SDS_P1;SDS_P2;PMS_P1;PMS_P2;Temp;Humidity;BMP_temperature;BMP_pressure;BME280_temperature;BME280_humidity;BME280_pressure;Samples;Min_cycle;Max_cycle;Signal;HPM_P1;HPM_P2
2022/11/28 00:01:34;;;;;;;13.48;6.10;;;;;;;0.65;100.00;101935.89;1670173;83;21006;-81
2022/11/28 00:04:19;;;;;;;13.72;6.20;;;;;;;0.65;100.00;101939.92;1719990;82;21053;-81
2022/11/28 00:07:04;;;;;;;16.25;7.03;;;;;;;0.66;100.00;101941.59;1674367;83;21460;-81
2022/11/28 00:09:48;;;;;;;13.95;6.10;;;;;;;0.66;100.00;101940.24;1721060;81;21156;-81
2022/11/28 00:12:34;;;;;;;13.25;6.60;;;;;;;0.66;100.00;101941.59;1722720;80;21045;-81
2022/11/28 00:15:19;;;;;;;13.32;6.37;;;;;;;0.63;100.00;101936.56;1670634;84;21014;-81
2022/11/28 00:18:05;;;;;;;16.95;7.28;;;;;;;0.64;100.00;101939.58;1690117;83;20914;-81
2022/11/28 00:20:51;;;;;;;16.75;6.70;;;;;;;0.66;100.00;101933.52;1674667;83;21499;-81
2022/11/28 00:23:37;;;;;;;16.12;6.22;;;;;;;0.64;100.00;101940.44;1696643;81;21046;-81
2022/11/28 00:26:32;;;;;;;11.48;4.92;;;;;;;0.63;100.00;101945.47;1669956;83;21100;-81
2022/11/28 00:29:17;;;;;;;13.78;6.90;;;;;;;0.66;100.00;101948.83;1720154;81;20938;-81
2022/11/28 00:32:02;;;;;;;13.93;6.03;;;;;;;0.66;100.00;101942.93;1675769;83;21165;-81
2022/11/28 00:34:46;;;;;;;15.65;6.20;;;;;;;0.66;100.00;101942.93;1675193;83;21059;-81
2022/11/28 00:37:31;;;;;;;17.85;7.17;;;;;;;0.67;100.00;101944.63;1668544;83;21615;-81
2022/11/28 00:40:16;;;;;;;18.70;6.65;;;;;;;0.69;100.00;101948.46;1722366;81;21458;-81
2022/11/28 00:43:00;;;;;;;19.55;6.87;;;;;;;0.69;100.00;101948.46;1723629;82;21199;-81
2022/11/28 00:45:45;;;;;;;13.85;6.10;;;;;;;0.69;100.00;101945.26;1725808;82;21094;-81
2022/11/28 00:48:31;;;;;;;16.57;7.42;;;;;;;0.72;100.00;101946.76;1712055;82;21586;-81
2022/11/28 00:51:22;;;;;;;17.57;7.78;;;;;;;0.71;100.00;101945.92;1713882;82;21172;-81
2022/11/28 00:54:07;;;;;;;13.28;6.12;;;;;;;0.69;100.00;101951.16;1701293;83;21067;-81
2022/11/28 00:56:52;;;;;;;13.20;6.83;;;;;;;0.65;100.00;101948.00;1664869;83;21158;-81
2022/11/28 00:59:37;;;;;;;13.60;6.65;;;;;;;0.67;100.00;101951.83;1675215;84;21544;-81
2022/11/28 01:02:22;;;;;;;15.10;6.22;;;;;;;0.67;100.00;101943.28;1681368;84;21002;-81
2022/11/28 01:05:08;;;;;;;15.95;6.10;;;;;;;0.66;100.00;101940.75;1727772;81;21066;-81
2022/11/28 01:07:53;;;;;;;12.98;5.40;;;;;;;0.64;100.00;101943.61;1690551;83;21062;-81
2022/11/28 01:10:41;;;;;;;18.77;7.45;;;;;;;0.67;100.00;101939.24;1723449;81;21077;-81
2022/11/28 01:13:27;;;;;;;17.30;7.95;;;;;;;0.67;100.00;101940.59;1714982;81;21114;-81
2022/11/28 01:16:12;;;;;;;14.87;6.30;;;;;;;0.68;100.00;101955.70;1692810;82;21128;-81
2022/11/28 01:18:57;;;;;;;16.95;7.33;;;;;;;0.69;100.00;101946.60;1695498;82;21113;-81
2022/11/28 01:21:41;;;;;;;15.53;6.03;;;;;;;0.68;100.00;101943.59;1713738;82;21041;-81
2022/11/28 01:24:26;;;;;;;17.70;7.22;;;;;;;0.67;100.00;101945.97;1673004;84;21043;-81
2022/11/28 01:27:11;;;;;;;13.32;5.80;;;;;;;0.65;100.00;101945.30;1711750;82;21004;-81
2022/11/28 01:29:55;;;;;;;11.93;6.37;;;;;;;0.65;100.00;101937.23;1696723;83;21951;-81
2022/11/28 01:32:40;;;;;;;18.95;7.72;;;;;;;0.66;100.00;101942.93;1668310;83;21183;-81
2022/11/28 01:35:24;;;;;;;12.88;5.85;;;;;;;0.66;100.00;101944.79;1692897;83;21179;-81
2022/11/28 01:38:09;;;;;;;16.90;6.75;;;;;;;0.66;100.00;101948.31;1690937;83;21120;-81
2022/11/28 01:40:53;;;;;;;16.05;6.92;;;;;;;0.68;100.00;101948.98;1663996;85;20911;-81
2022/11/28 01:44:03;;;;;;;16.85;6.55;;;;;;;0.70;100.00;101952.33;1641456;86;21070;-81
2022/11/28 01:46:47;;;;;;;12.43;5.62;;;;;;;0.71;100.00;101958.03;1652681;85;21591;-80
2022/11/28 01:49:35;;;;;;;15.75;6.87;;;;;;;0.71;100.00;101954.00;1660289;84;21512;-80
2022/11/28 01:52:19;;;;;;;18.90;7.50;;;;;;;0.71;100.00;101947.27;1710371;82;21077;-80
2022/11/28 01:55:04;;;;;;;18.50;7.22;;;;;;;0.73;100.00;101956.01;1680056;84;21023;-80
2022/11/28 01:57:49;;;;;;;22.93;8.23;;;;;;;0.74;100.00;101953.67;1679855;83;21087;-80
2022/11/28 02:00:33;;;;;;;17.67;6.62;;;;;;;0.73;100.00;101957.35;1669066;84;21046;-80
2022/11/28 02:03:23;;;;;;;23.42;7.08;;;;;;;0.73;100.00;101952.48;1668455;84;21060;-80
2022/11/28 02:06:10;;;;;;;18.70;8.08;;;;;;;0.70;100.00;101955.02;1696586;82;20990;-81
2022/11/28 02:08:55;;;;;;;17.80;7.37;;;;;;;0.71;100.00;101955.34;1670147;84;21046;-80
2022/11/28 02:12:04;;;;;;;19.42;6.37;;;;;;;0.70;100.00;101945.61;1712261;82;21080;-80
2022/11/28 02:15:12;;;;;;;17.62;6.12;;;;;;;0.68;100.00;101946.28;1667790;84;21475;-80
2022/11/28 02:18:12;;;;;;;16.95;7.47;;;;;;;0.67;100.00;101943.77;1678183;84;21111;-80
2022/11/28 02:21:23;;;;;;;18.82;7.58;;;;;;;0.64;100.00;101952.55;1647915;86;21077;-80
2022/11/28 02:24:40;;;;;;;17.48;7.55;;;;;;;0.63;100.00;101952.20;1634560;86;21054;-80
2022/11/28 02:27:59;;;;;;;17.60;8.03;;;;;;;0.62;100.00;101948.36;1659393;85;21329;-80
2022/11/28 02:31:11;;;;;;;20.45;7.97;;;;;;;0.61;100.00;101954.73;1654234;84;21136;-80
2022/11/28 02:33:58;;;;;;;15.13;6.67;;;;;;;0.61;100.00;101954.22;1691797;83;21052;-80
2022/11/28 02:36:48;;;;;;;14.13;5.60;;;;;;;0.62;100.00;101959.12;1691918;80;21104;-80
2022/11/28 02:39:56;;;;;;;14.25;6.70;;;;;;;0.61;100.00;101962.29;1676461;83;21058;-80
2022/11/28 02:43:01;;;;;;;14.45;5.80;;;;;;;0.62;100.00;101962.64;1703662;82;21484;-80
2022/11/28 02:46:21;;;;;;;13.43;6.05;;;;;;;0.64;100.00;101967.83;1696248;83;21043;-80
2022/11/28 02:49:11;;;;;;;10.28;5.28;;;;;;;0.65;100.00;101972.20;1704994;81;21063;-80
2022/11/28 02:52:02;;;;;;;18.87;6.85;;;;;;;0.67;100.00;101966.15;1645395;86;21060;-80
2022/11/28 02:54:48;;;;;;;13.93;5.92;;;;;;;0.66;100.00;101968.49;1655182;85;22069;-80
2022/11/28 02:57:39;;;;;;;11.25;5.42;;;;;;;0.66;100.00;101968.49;1652835;84;21137;-80
2022/11/28 03:00:33;;;;;;;14.13;5.75;;;;;;;0.67;100.00;101967.50;1675641;82;21086;-80
2022/11/28 03:04:00;;;;;;;10.60;5.65;;;;;;;0.69;100.00;101968.13;1720593;82;21073;-80
2022/11/28 03:07:08;;;;;;;9.70;4.70;;;;;;;0.71;100.00;101970.14;1665898;84;21481;-80
2022/11/28 03:10:23;;;;;;;14.47;4.85;;;;;;;0.73;100.00;101971.32;1673187;82;20986;-80
2022/11/28 03:13:34;;;;;;;13.08;5.10;;;;;;;0.74;100.00;101975.67;1680449;84;21899;-80
2022/11/28 03:16:32;;;;;;;9.23;4.97;;;;;;;0.76;100.00;101975.83;1685868;83;21469;-80
2022/11/28 03:19:26;;;;;;;10.03;3.60;;;;;;;0.78;100.00;101981.05;1690587;82;21122;-81
2022/11/28 03:22:38;;;;;;;14.68;4.50;;;;;;;0.77;100.00;101978.03;1652390;84;21228;-79
2022/11/28 03:25:49;;;;;;;15.55;6.53;;;;;;;0.79;100.00;101978.19;1712303;82;21596;-80
2022/11/28 03:28:57;;;;;;;15.10;6.28;;;;;;;0.79;100.00;101979.53;1697300;81;21059;-80
2022/11/28 03:31:47;;;;;;;8.90;4.45;;;;;;;0.81;100.00;101978.83;1713999;82;21137;-79
2022/11/28 03:34:36;;;;;;;6.95;3.17;;;;;;;0.83;100.00;101980.00;1726623;81;21066;-79
2022/11/28 03:37:31;;;;;;;7.03;3.50;;;;;;;0.84;100.00;101985.22;1695035;82;21062;-80
2022/11/28 03:40:19;;;;;;;7.53;3.83;;;;;;;0.76;100.00;101990.63;1699606;82;21046;-79
2022/11/28 03:43:08;;;;;;;8.33;3.50;;;;;;;0.70;100.00;101983.28;1719251;82;21106;-79
2022/11/28 03:45:56;;;;;;;5.62;3.10;;;;;;;0.68;100.00;101989.34;1670942;84;22156;-79
2022/11/28 03:48:47;;;;;;;8.08;3.77;;;;;;;0.63;100.00;101989.86;1684565;83;21148;-80
2022/11/28 03:51:48;;;;;;;10.05;3.08;;;;;;;0.59;100.00;101995.77;1669636;83;21547;-80
2022/11/28 03:54:38;;;;;;;8.63;4.43;;;;;;;0.54;100.00;101999.48;1663543;84;21508;-80
2022/11/28 03:57:33;;;;;;;9.50;3.58;;;;;;;0.54;100.00;102005.70;1661271;85;21725;-80
2022/11/28 04:00:18;;;;;;;9.38;3.85;;;;;;;0.53;100.00;101998.66;1709513;81;21701;-80
2022/11/28 04:03:10;;;;;;;16.70;4.10;;;;;;;0.49;100.00;101990.59;1670571;84;21023;-80
2022/11/28 04:06:02;;;;;;;6.50;3.90;;;;;;;0.48;100.00;101987.59;1665855;84;21523;-80
2022/11/28 04:09:07;;;;;;;8.00;3.10;;;;;;;0.48;100.00;101984.90;1721203;82;21032;-80
2022/11/28 04:11:55;;;;;;;12.73;4.70;;;;;;;0.48;100.00;101984.06;1680269;84;21117;-80
2022/11/28 04:14:48;;;;;;;7.58;3.40;;;;;;;0.49;100.00;101978.49;1646158;85;21019;-80
2022/11/28 04:17:37;;;;;;;7.23;3.93;;;;;;;0.48;100.00;101973.31;1695036;82;21078;-79
2022/11/28 04:20:52;;;;;;;9.45;3.72;;;;;;;0.46;100.00;101980.70;1669919;83;21456;-80
2022/11/28 04:23:36;;;;;;;8.05;3.45;;;;;;;0.42;100.00;101983.75;1666615;82;21061;-79
2022/11/28 04:26:32;;;;;;;20.08;6.75;;;;;;;0.42;100.00;101985.58;1683992;82;21534;-79
2022/11/28 04:29:17;;;;;;;13.95;4.75;;;;;;;0.42;100.00;101985.58;1756723;80;20982;-79
2022/11/28 04:32:02;;;;;;;4.17;2.10;;;;;;;0.42;100.00;101994.99;1661561;83;21198;-79
2022/11/28 04:34:51;;;;;;;7.12;2.77;;;;;;;0.42;100.00;101993.65;1677126;83;20982;-79
2022/11/28 04:37:37;;;;;;;6.95;2.70;;;;;;;0.43;100.00;101992.66;1713830;82;21017;-79
2022/11/28 04:40:22;;;;;;;3.80;2.52;;;;;;;0.45;100.00;101990.64;1741229;80;21022;-79
2022/11/28 04:43:10;;;;;;;4.97;2.85;;;;;;;0.45;100.00;101987.11;1723045;80;21065;-80
2022/11/28 04:46:02;;;;;;;3.05;2.10;;;;;;;0.42;100.00;101985.58;1668240;83;20999;-80
2022/11/28 04:48:47;;;;;;;4.62;2.72;;;;;;;0.42;100.00;101996.34;1660728;84;21447;-80
2022/11/28 04:52:08;;;;;;;4.72;2.40;;;;;;;0.40;100.00;101996.53;1724146;82;21003;-80
2022/11/28 04:55:18;;;;;;;4.60;2.30;;;;;;;0.38;100.00;101991.83;1668884;84;21076;-80
2022/11/28 04:58:16;;;;;;;4.53;2.50;;;;;;;0.36;100.00;101995.19;1685891;84;21030;-80
2022/11/28 05:01:01;;;;;;;3.27;2.15;;;;;;;0.39;100.00;101998.88;1693053;81;21018;-80
2022/11/28 05:03:46;;;;;;;6.37;2.33;;;;;;;0.39;100.00;102002.91;1711089;82;21477;-80
2022/11/28 07:09:35;;;;;;;4.58;2.65;;;;;;;0.02;100.00;102081.98;1827490;77;28917;-84
2022/11/28 07:12:19;;;;;;;8.63;3.40;;;;;;;0.07;100.00;102081.80;1751837;80;21017;-84
2022/11/28 07:15:07;;;;;;;14.23;4.83;;;;;;;0.17;100.00;102078.45;1753425;80;21013;-85
2022/11/28 07:17:51;;;;;;;9.63;5.58;;;;;;;0.26;100.00;102072.54;1756160;80;21005;-84
2022/11/28 07:20:36;;;;;;;20.02;7.47;;;;;;;0.38;100.00;102076.55;1748617;81;21022;-84
2022/11/28 07:23:20;;;;;;;14.87;7.35;;;;;;;0.50;100.00;102077.53;1714455;82;21031;-84
2022/11/28 07:26:05;;;;;;;8.48;4.50;;;;;;;0.62;100.00;102071.60;1740264;81;21594;-84
2022/11/28 07:28:51;;;;;;;3.30;2.25;;;;;;;0.68;100.00;102064.67;1739939;80;21075;-85
2022/11/28 07:31:35;;;;;;;4.22;3.12;;;;;;;0.72;100.00;102066.49;1738817;81;21007;-84
2022/11/28 07:34:20;;;;;;;3.95;2.47;;;;;;;0.75;100.00;102063.48;1707202;82;20994;-85
2022/11/28 07:37:04;;;;;;;7.85;4.90;;;;;;;0.74;100.00;102059.95;1728900;81;21489;-85
2022/11/28 07:39:49;;;;;;;6.25;3.55;;;;;;;0.75;100.00;102062.97;1729474;80;21062;-85
2022/11/28 07:42:34;;;;;;;7.92;3.90;;;;;;;0.80;100.00;102067.31;1699898;84;21819;-84
2022/11/28 07:45:21;;;;;;;9.83;4.37;;;;;;;0.84;100.00;102070.48;1736103;81;21005;-85
2022/11/28 07:48:06;;;;;;;5.95;3.27;;;;;;;0.91;100.00;102078.70;1744291;80;21432;-84
2022/11/28 07:50:51;;;;;;;6.78;3.33;;;;;;;0.93;100.00;102075.33;1730825;80;21027;-85
2022/11/28 07:53:36;;;;;;;8.38;3.40;;;;;;;0.95;100.00;102076.83;1733319;80;21016;-84
2022/11/28 07:56:24;;;;;;;8.65;3.67;;;;;;;0.98;100.00;102082.37;1734809;81;21471;-85
2022/11/28 07:59:09;;;;;;;7.70;3.25;;;;;;;1.02;100.00;102078.32;1729213;80;21000;-85
2022/11/28 08:01:53;;;;;;;6.12;3.17;;;;;;;1.07;100.00;102081.32;1739354;80;21434;-84
2022/11/28 08:04:38;;;;;;;6.58;3.27;;;;;;;1.11;100.00;102086.66;1692658;82;21374;-84
2022/11/28 08:07:22;;;;;;;7.22;2.90;;;;;;;1.14;100.00;102081.43;1702003;81;20994;-84
2022/11/28 08:10:08;;;;;;;6.33;2.65;;;;;;;1.17;100.00;102083.79;1742411;81;21058;-85
2022/11/28 08:12:54;;;;;;;7.40;3.12;;;;;;;1.16;100.00;102081.58;1705190;82;20986;-85
2022/11/28 08:15:39;;;;;;;8.80;3.35;;;;;;;1.19;100.00;102085.29;1737298;80;21045;-84
2022/11/28 08:18:24;;;;;;;5.25;2.33;;;;;;;1.21;100.00;102085.95;1741579;80;20993;-82
2022/11/28 08:21:22;;;;;;;8.28;3.72;;;;;;;1.24;100.00;102090.15;1737182;80;21044;-84
2022/11/28 08:24:07;;;;;;;8.83;3.40;;;;;;;1.27;100.00;102094.66;1738610;80;21030;-85
2022/11/28 08:26:52;;;;;;;5.87;3.02;;;;;;;1.32;100.00;102094.64;1700811;81;21019;-85
2022/11/28 08:29:37;;;;;;;5.78;3.02;;;;;;;1.33;100.00;102094.45;1690709;81;21059;-85
2022/11/28 08:32:22;;;;;;;8.30;3.10;;;;;;;1.35;100.00;102096.97;1669666;84;20978;-85
2022/11/28 08:35:06;;;;;;;11.78;4.50;;;;;;;1.39;100.00;102101.83;1732201;80;21010;-85
2022/11/28 08:37:51;;;;;;;7.55;3.05;;;;;;;1.44;100.00;102100.78;1700657;82;21010;-84
2022/11/28 08:40:35;;;;;;;6.20;3.02;;;;;;;1.46;100.00;102099.27;1695471;83;21038;-84
2022/11/28 08:43:20;;;;;;;8.63;3.60;;;;;;;1.47;100.00;102090.99;1742715;80;21046;-84
2022/11/28 08:46:08;;;;;;;11.15;4.83;;;;;;;1.49;100.00;102088.13;1695292;84;21588;-85
2022/11/28 08:48:53;;;;;;;12.60;6.08;;;;;;;1.45;100.00;102067.94;1714887;82;20990;-84
2022/11/28 08:51:37;;;;;;;11.97;4.05;;;;;;;1.43;100.00;102074.02;1742031;81;21031;-85
2022/11/28 08:54:22;;;;;;;5.50;2.92;;;;;;;1.41;100.00;102073.34;1737869;80;20999;-85
2022/11/28 08:57:06;;;;;;;6.78;3.15;;;;;;;1.41;100.00;102067.96;1694939;84;21064;-85
2022/11/28 08:59:51;;;;;;;6.42;2.87;;;;;;;1.43;100.00;102064.58;1722688;82;21057;-85
2022/11/28 09:02:35;;;;;;;8.73;3.08;;;;;;;1.44;100.00;102063.07;1736463;80;21066;-85
2022/11/28 09:05:19;;;;;;;7.87;2.58;;;;;;;1.46;100.00;102060.20;1740080;80;21493;-85
2022/11/28 09:08:05;;;;;;;9.33;3.83;;;;;;;1.49;100.00;102057.15;1736464;81;21209;-85
2022/11/28 09:10:49;;;;;;;8.78;3.90;;;;;;;1.53;100.00;102058.44;1750587;80;21007;-85
2022/11/28 09:13:35;;;;;;;6.58;3.27;;;;;;;1.60;100.00;102058.05;1702158;82;21002;-84
2022/11/28 09:16:19;;;;;;;6.67;2.90;;;;;;;1.65;100.00;102055.66;1712321;82;21050;-85
2022/11/28 09:19:05;;;;;;;5.95;3.70;;;;;;;1.68;100.00;102059.84;1701926;82;21521;-84
2022/11/28 09:21:50;;;;;;;7.42;3.35;;;;;;;1.69;100.00;102050.75;1707671;82;21086;-85
2022/11/28 09:24:35;;;;;;;8.70;3.67;;;;;;;1.70;100.00;102061.33;1711309;82;21414;-84
2022/11/28 09:27:19;;;;;;;6.72;2.95;;;;;;;1.70;100.00;102057.29;1677547;83;21509;-85
2022/11/28 09:30:06;;;;;;;8.45;3.47;;;;;;;1.71;100.00;102054.94;1678706;83;21445;-84
2022/11/28 09:32:51;;;;;;;8.88;3.12;;;;;;;1.74;100.00;102052.91;1708692;82;21046;-84
2022/11/28 09:35:38;;;;;;;9.05;3.15;;;;;;;1.75;100.00;102043.79;1672637;83;21012;-83
2022/11/28 09:38:24;;;;;;;8.13;3.12;;;;;;;1.77;100.00;102052.02;1683159;83;21052;-85
2022/11/28 09:41:52;;;;;;;7.10;2.87;;;;;;;1.81;100.00;102061.95;1693275;82;21064;-84
2022/11/28 09:44:52;;;;;;;7.67;2.85;;;;;;;1.78;100.00;102056.90;1691630;83;21031;-84
2022/11/28 09:47:38;;;;;;;5.33;2.92;;;;;;;1.78;100.00;102056.41;1689410;82;21007;-84
2022/11/28 09:50:25;;;;;;;11.48;3.00;;;;;;;1.82;100.00;102050.13;1731289;82;21013;-86
2022/11/28 09:53:18;;;;;;;10.25;4.60;;;;;;;1.87;100.00;102053.12;1736350;80;21074;-85
2022/11/28 09:56:13;;;;;;;17.40;6.30;;;;;;;1.91;100.00;102051.74;1733822;80;20980;-84
2022/11/28 09:59:01;;;;;;;9.20;3.75;;;;;;;1.95;100.00;102053.03;1706034;82;21003;-85
2022/11/28 12:05:24;;;;;;;12.88;5.37;;;;;;;1.68;100.00;102027.02;1819829;77;28951;-84
2022/11/28 12:08:27;;;;;;;13.13;5.20;;;;;;;1.68;100.00;102028.36;1748100;80;21080;-83
2022/11/28 12:11:36;;;;;;;12.98;4.60;;;;;;;1.74;100.00;102028.66;1739988;81;21021;-83
2022/11/28 12:14:31;;;;;;;11.75;5.30;;;;;;;1.82;100.00;102028.56;1727928;81;21056;-84
2022/11/28 12:17:54;;;;;;;8.75;4.55;;;;;;;1.89;100.00;102026.81;1699371;83;20991;-83
2022/11/28 12:21:01;;;;;;;6.03;2.80;;;;;;;1.94;100.00;102019.84;1713386;82;21038;-83
2022/11/28 12:24:04;;;;;;;8.03;3.35;;;;;;;1.96;100.00;102023.72;1695453;83;21108;-83
2022/11/28 12:27:00;;;;;;;7.28;3.42;;;;;;;2.01;100.00;102024.52;1670277;82;21054;-81
2022/11/28 12:30:03;;;;;;;6.20;2.70;;;;;;;2.04;100.00;102029.02;1706350;82;21017;-81
2022/11/28 12:33:23;;;;;;;8.25;4.50;;;;;;;2.06;100.00;102021.59;1717826;82;21034;-84
2022/11/28 12:36:40;;;;;;;5.83;3.17;;;;;;;2.10;100.00;102024.25;1719738;83;21042;-83
2022/11/28 12:39:41;;;;;;;7.50;3.70;;;;;;;2.14;100.00;102028.23;1622010;86;21092;-83
2022/11/28 12:42:32;;;;;;;8.23;3.80;;;;;;;2.13;100.00;102023.05;1626910;86;21100;-83
2022/11/28 12:45:37;;;;;;;5.55;2.90;;;;;;;2.10;100.00;102022.91;1715818;83;21551;-84
2022/11/28 12:48:54;;;;;;;3.95;2.85;;;;;;;2.12;100.00;102026.75;1703169;82;21088;-84
2022/11/28 12:52:00;;;;;;;8.58;3.85;;;;;;;2.14;100.00;102022.84;1710975;83;20998;-84
2022/11/28 12:54:53;;;;;;;6.53;3.05;;;;;;;2.13;100.00;102025.74;1681651;83;21457;-84
2022/11/28 12:58:01;;;;;;;5.58;2.83;;;;;;;2.15;100.00;102029.06;1698279;83;21021;-84
2022/11/28 13:01:04;;;;;;;7.22;3.87;;;;;;;2.15;100.00;102029.06;1704918;82;21449;-83
2022/11/28 13:04:23;;;;;;;6.53;3.47;;;;;;;2.10;100.00;102028.30;1716641;82;20981;-83
2022/11/28 19:08:44;;;;;;;18.67;5.95;;;;;;;1.45;100.00;102102.45;1829816;77;29411;-83
2022/11/28 19:11:29;;;;;;;22.85;7.08;;;;;;;1.45;100.00;102105.66;1786317;79;21009;-84
2022/11/28 19:14:16;;;;;;;18.60;7.05;;;;;;;1.49;100.00;102109.68;1703599;82;21465;-84
2022/11/28 19:17:01;;;;;;;25.48;8.28;;;;;;;1.53;100.00;102104.24;1755366;80;20986;-84
2022/11/28 19:19:46;;;;;;;30.90;8.68;;;;;;;1.56;100.00;102107.95;1759945;79;21577;-86
2022/11/28 19:22:30;;;;;;;30.32;7.97;;;;;;;1.62;100.00;102112.61;1739235;81;21065;-85
2022/11/28 19:25:15;;;;;;;18.95;7.75;;;;;;;1.65;100.00;102109.55;1750647;81;21185;-84
2022/11/28 19:28:00;;;;;;;19.02;6.12;;;;;;;1.69;100.00;102105.48;1721582;81;21032;-84
2022/11/28 19:30:44;;;;;;;15.55;5.30;;;;;;;1.68;100.00;102106.52;1748617;81;20982;-84
2022/11/28 19:33:29;;;;;;;8.98;4.87;;;;;;;1.68;100.00;102109.21;1738918;82;21014;-83
2022/11/28 19:36:13;;;;;;;7.80;3.65;;;;;;;1.70;100.00;102100.41;1737485;80;21017;-83
2022/11/28 19:38:58;;;;;;;5.10;2.80;;;;;;;1.68;100.00;102101.13;1731527;82;21057;-83
2022/11/28 19:41:44;;;;;;;7.85;3.22;;;;;;;1.67;100.00;102090.00;1733100;81;21001;-84
2022/11/28 19:44:29;;;;;;;5.83;3.33;;;;;;;1.69;100.00;102086.63;1731087;82;21041;-83
2022/11/28 19:47:14;;;;;;;6.12;2.75;;;;;;;1.68;100.00;102084.09;1724773;82;21062;-83
2022/11/28 19:50:00;;;;;;;6.00;2.98;;;;;;;1.68;100.00;102086.79;1707320;82;21012;-81
2022/11/28 19:52:44;;;;;;;6.95;3.33;;;;;;;1.66;100.00;102091.03;1728610;82;21483;-81
2022/11/28 19:55:30;;;;;;;7.47;2.58;;;;;;;1.66;100.00;102076.20;1720220;82;21520;-82
2022/11/28 19:58:15;;;;;;;5.35;2.77;;;;;;;1.66;100.00;102074.03;1703844;83;21029;-81
2022/11/28 20:01:08;;;;;;;6.42;2.58;;;;;;;1.69;100.00;102082.58;1718026;82;21057;-82
2022/11/28 20:03:53;;;;;;;5.70;2.85;;;;;;;1.74;100.00;102087.95;1728471;82;21076;-81
2022/11/28 20:06:38;;;;;;;4.72;2.70;;;;;;;1.71;100.00;102078.36;1725084;82;21020;-81
